Time;durP1;ratioP1;P1;durP2;ratioP2;P2;SDS_P1;SDS_P2;PMS_P1;PMS_P2;Temp;Humidity;BMP_temperature;BMP_pressure;BME280_temperature;BME280_humidity;BME280_pressure;Samples;Min_cycle;Max_cycle;Signal;HPM_P1;HPM_P2
2023/10/24 00:01:30;;;;;;;;;;;10.80;89.00;;;;;;5054434;28;19921;-69
2023/10/24 00:03:55;;;;;;;;;;;10.80;89.00;;;;;;4987019;28;19925;-69
2023/10/24 00:06:21;;;;;;;;;;;10.70;89.10;;;;;;5047052;28;19930;-69
2023/10/24 00:08:46;;;;;;;;;;;10.80;89.10;;;;;;4967940;28;19929;-69
2023/10/24 00:11:12;;;;;;;;;;;10.80;89.00;;;;;;4970841;28;19922;-69
2023/10/24 00:13:37;;;;;;;;;;;10.70;89.10;;;;;;4968346;28;19983;-69
2023/10/24 00:16:03;;;;;;;;;;;10.80;89.20;;;;;;4967951;28;19922;-69
2023/10/24 00:18:28;;;;;;;;;;;10.80;89.20;;;;;;4971406;28;19921;-68
2023/10/24 00:20:54;;;;;;;;;;;10.80;89.40;;;;;;5032657;28;19941;-69
2023/10/24 00:23:20;;;;;;;;;;;10.80;89.30;;;;;;4967215;28;19929;-69
2023/10/24 00:25:45;;;;;;;;;;;10.80;89.30;;;;;;4976846;28;19997;-69
2023/10/24 00:28:11;;;;;;;;;;;10.80;89.30;;;;;;4987128;28;19921;-69
2023/10/24 00:30:37;;;;;;;;;;;10.80;89.20;;;;;;4978805;28;19944;-69
2023/10/24 00:33:03;;;;;;;;;;;10.80;89.40;;;;;;4987382;28;19925;-68
2023/10/24 00:35:29;;;;;;;;;;;10.90;89.40;;;;;;4990670;28;19929;-69
2023/10/24 00:37:55;;;;;;;;;;;10.80;89.50;;;;;;4972754;28;20298;-68
2023/10/24 00:40:20;;;;;;;;;;;10.90;89.60;;;;;;4976095;28;19922;-68
2023/10/24 00:42:46;;;;;;;;;;;10.90;89.70;;;;;;4990763;28;19921;-68
2023/10/24 00:45:11;;;;;;;;;;;10.80;89.60;;;;;;4990085;28;19922;-67
2023/10/24 00:47:39;;;;;;;;;;;10.90;89.60;;;;;;4990709;28;20412;-68
2023/10/24 00:50:07;;;;;;;;;;;10.90;89.70;;;;;;4990467;28;19925;-67
2023/10/24 00:52:33;;;;;;;;;;;10.80;89.70;;;;;;4990264;28;19929;-68
2023/10/24 00:54:58;;;;;;;;;;;10.80;89.90;;;;;;4988674;28;20285;-68
2023/10/24 00:57:24;;;;;;;;;;;10.80;89.90;;;;;;5045419;28;19947;-68
2023/10/24 00:59:50;;;;;;;;;;;10.80;89.80;;;;;;4989423;28;19929;-67
2023/10/24 01:02:16;;;;;;;;;;;10.80;89.90;;;;;;4975504;28;19947;-68
2023/10/24 01:04:42;;;;;;;;;;;10.80;90.10;;;;;;4970921;28;20366;-68
2023/10/24 01:07:07;;;;;;;;;;;10.80;90.40;;;;;;4974816;28;19932;-67
2023/10/24 01:09:33;;;;;;;;;;;10.80;90.20;;;;;;4990386;28;19928;-68
2023/10/24 01:11:59;;;;;;;;;;;10.80;90.40;;;;;;4989955;28;20340;-68
2023/10/24 01:14:25;;;;;;;;;;;10.90;90.50;;;;;;4979257;28;20492;-69
2023/10/24 01:16:51;;;;;;;;;;;10.80;90.50;;;;;;4971416;28;19922;-68
2023/10/24 01:19:17;;;;;;;;;;;10.80;90.70;;;;;;4990073;28;20347;-67
2023/10/24 01:21:43;;;;;;;;;;;10.80;90.60;;;;;;4988816;28;19929;-68
2023/10/24 01:24:09;;;;;;;;;;;10.80;90.50;;;;;;4985791;28;20002;-69
2023/10/24 01:26:35;;;;;;;;;;;10.80;90.60;;;;;;4971016;28;19922;-69
2023/10/24 01:29:00;;;;;;;;;;;10.80;90.70;;;;;;4988296;28;19921;-68
2023/10/24 01:31:26;;;;;;;;;;;10.80;90.90;;;;;;4989347;28;19933;-68
2023/10/24 01:33:51;;;;;;;;;;;10.80;90.80;;;;;;4977927;28;19929;-68
2023/10/24 01:36:17;;;;;;;;;;;10.80;90.60;;;;;;4989761;28;20002;-68
2023/10/24 01:38:43;;;;;;;;;;;10.80;90.70;;;;;;4989509;28;19925;-68
2023/10/24 01:41:08;;;;;;;;;;;10.80;90.90;;;;;;4989541;28;19925;-68
2023/10/24 01:43:34;;;;;;;;;;;10.80;90.90;;;;;;4988652;28;19922;-68
2023/10/24 01:45:59;;;;;;;;;;;10.80;90.90;;;;;;4989177;28;19926;-68
2023/10/24 01:48:25;;;;;;;;;;;10.70;90.80;;;;;;5056531;28;19926;-68
2023/10/24 01:50:50;;;;;;;;;;;10.80;90.80;;;;;;4989182;28;19945;-68
2023/10/24 01:53:16;;;;;;;;;;;10.80;90.90;;;;;;5057212;28;20025;-68
2023/10/24 01:55:42;;;;;;;;;;;10.80;91.00;;;;;;4989124;28;19976;-69
2023/10/24 01:58:07;;;;;;;;;;;10.80;91.00;;;;;;4988747;28;19921;-68
2023/10/24 02:00:33;;;;;;;;;;;10.80;91.10;;;;;;5056520;28;19921;-68
2023/10/24 02:02:58;;;;;;;;;;;10.70;91.20;;;;;;4989857;28;19925;-68
2023/10/24 02:05:24;;;;;;;;;;;10.70;91.40;;;;;;4983507;28;20370;-68
2023/10/24 02:07:49;;;;;;;;;;;10.70;91.50;;;;;;4977463;28;20016;-68
2023/10/24 02:10:15;;;;;;;;;;;10.70;91.50;;;;;;4988568;28;19931;-68
2023/10/24 02:12:41;;;;;;;;;;;10.70;91.30;;;;;;4984274;28;19965;-69
2023/10/24 02:15:07;;;;;;;;;;;10.80;91.30;;;;;;4979751;28;19969;-68
2023/10/24 02:17:32;;;;;;;;;;;10.70;91.20;;;;;;4988927;28;20005;-68
2023/10/24 02:19:58;;;;;;;;;;;10.80;91.40;;;;;;4989054;28;20726;-68
2023/10/24 02:22:24;;;;;;;;;;;10.80;91.40;;;;;;4989347;28;19986;-68
2023/10/24 02:24:49;;;;;;;;;;;10.70;91.40;;;;;;4988907;28;20012;-67
2023/10/24 02:27:15;;;;;;;;;;;10.80;91.50;;;;;;4988769;28;19922;-68
2023/10/24 02:29:40;;;;;;;;;;;10.80;91.60;;;;;;5056090;28;19926;-68
2023/10/24 02:32:06;;;;;;;;;;;10.80;91.40;;;;;;4988896;28;20294;-68
2023/10/24 02:34:31;;;;;;;;;;;10.80;91.40;;;;;;4987948;28;19961;-68
2023/10/24 02:36:57;;;;;;;;;;;10.80;91.50;;;;;;4988254;28;20013;-68
2023/10/24 02:39:22;;;;;;;;;;;10.80;91.60;;;;;;4988541;28;19921;-68
2023/10/24 02:41:48;;;;;;;;;;;10.80;91.50;;;;;;4988706;28;20013;-68
2023/10/24 02:44:14;;;;;;;;;;;10.80;91.50;;;;;;4988759;28;20318;-68
2023/10/24 02:46:39;;;;;;;;;;;10.80;91.40;;;;;;4971909;28;19926;-68
2023/10/24 02:49:05;;;;;;;;;;;10.80;91.40;;;;;;4979271;28;19922;-68
2023/10/24 02:51:30;;;;;;;;;;;10.90;91.50;;;;;;4968845;28;19922;-68
2023/10/24 02:53:56;;;;;;;;;;;10.80;91.60;;;;;;5055212;28;19932;-68
2023/10/24 02:56:21;;;;;;;;;;;10.90;91.60;;;;;;4987679;28;19932;-68
2023/10/24 02:58:47;;;;;;;;;;;10.90;91.60;;;;;;4986998;28;19921;-67
2023/10/24 03:01:13;;;;;;;;;;;10.90;91.70;;;;;;4987845;28;20297;-68
2023/10/24 03:03:39;;;;;;;;;;;10.90;91.60;;;;;;4984896;28;19922;-67
2023/10/24 03:06:17;;;;;;;;;;;10.90;91.60;;;;;;4968735;28;19922;-67
2023/10/24 03:08:43;;;;;;;;;;;10.90;91.50;;;;;;4982134;28;19921;-67
2023/10/24 03:11:09;;;;;;;;;;;10.90;91.60;;;;;;4987341;28;19929;-67
2023/10/24 03:13:34;;;;;;;;;;;10.90;91.60;;;;;;4987864;28;20004;-68
2023/10/24 03:16:03;;;;;;;;;;;11.00;91.90;;;;;;4968923;28;19953;-67
2023/10/24 03:18:30;;;;;;;;;;;10.90;91.70;;;;;;4977329;28;20292;-67
2023/10/24 03:20:56;;;;;;;;;;;11.00;91.90;;;;;;4987822;28;19922;-67
2023/10/24 03:23:22;;;;;;;;;;;10.90;91.90;;;;;;4987382;28;19925;-67
2023/10/24 03:25:47;;;;;;;;;;;10.90;91.90;;;;;;4987941;28;19922;-67
2023/10/24 03:28:14;;;;;;;;;;;11.00;92.10;;;;;;4988106;28;20704;-68
2023/10/24 03:30:39;;;;;;;;;;;11.00;92.10;;;;;;4987806;28;20705;-67
2023/10/24 03:33:05;;;;;;;;;;;11.00;92.00;;;;;;5054845;28;19966;-67
2023/10/24 03:35:32;;;;;;;;;;;11.00;92.00;;;;;;4986853;28;19922;-68
2023/10/24 03:37:58;;;;;;;;;;;11.10;92.10;;;;;;4987465;28;19926;-67
2023/10/24 03:40:26;;;;;;;;;;;11.10;92.10;;;;;;4987989;28;20956;-68
2023/10/24 03:42:52;;;;;;;;;;;11.10;92.20;;;;;;5054741;28;19922;-68
2023/10/24 03:45:18;;;;;;;;;;;11.10;92.20;;;;;;4976933;28;19932;-68
2023/10/24 03:47:43;;;;;;;;;;;11.10;92.20;;;;;;4969890;28;20332;-67
2023/10/24 03:50:09;;;;;;;;;;;11.10;92.40;;;;;;4988131;28;20401;-67
2023/10/24 03:52:34;;;;;;;;;;;11.10;92.40;;;;;;4974519;28;19926;-68
2023/10/24 03:55:00;;;;;;;;;;;11.10;92.40;;;;;;4968181;28;20394;-68
2023/10/24 03:57:25;;;;;;;;;;;11.10;92.40;;;;;;4968123;28;19929;-68
2023/10/24 03:59:51;;;;;;;;;;;11.10;92.50;;;;;;4986389;28;19928;-68
2023/10/24 04:02:16;;;;;;;;;;;11.10;92.60;;;;;;4987269;28;19927;-68
2023/10/24 04:04:42;;;;;;;;;;;11.10;92.70;;;;;;4987605;28;19969;-67
2023/10/24 04:07:07;;;;;;;;;;;11.10;92.80;;;;;;4986224;28;19926;-67
2023/10/24 04:09:33;;;;;;;;;;;11.10;92.70;;;;;;5054238;28;19922;-68
2023/10/24 04:12:00;;;;;;;;;;;11.20;92.80;;;;;;4982305;28;19922;-68
2023/10/24 04:14:25;;;;;;;;;;;11.20;92.80;;;;;;5053152;28;19939;-68
2023/10/24 04:16:51;;;;;;;;;;;11.20;92.80;;;;;;4968094;28;19921;-68
2023/10/24 04:19:16;;;;;;;;;;;11.20;93.00;;;;;;5033140;28;20297;-68
2023/10/24 04:21:42;;;;;;;;;;;11.20;93.10;;;;;;5042956;28;19921;-67
2023/10/24 04:24:08;;;;;;;;;;;11.20;93.10;;;;;;4975464;28;19922;-68
2023/10/24 04:26:34;;;;;;;;;;;11.20;93.10;;;;;;4985771;28;19922;-68
2023/10/24 04:28:59;;;;;;;;;;;11.20;93.30;;;;;;4986939;28;20389;-68
2023/10/24 04:31:25;;;;;;;;;;;11.30;93.30;;;;;;4973924;28;19976;-69
2023/10/24 04:33:50;;;;;;;;;;;11.30;93.40;;;;;;4968179;28;19949;-68
2023/10/24 04:36:16;;;;;;;;;;;11.30;93.50;;;;;;4979688;28;19921;-68
2023/10/24 04:38:42;;;;;;;;;;;11.30;93.40;;;;;;5062289;28;19921;-68
2023/10/24 04:41:07;;;;;;;;;;;11.40;93.60;;;;;;5059735;28;19966;-69
2023/10/24 04:43:33;;;;;;;;;;;11.40;93.60;;;;;;5064343;28;20353;-68
2023/10/24 04:45:59;;;;;;;;;;;11.40;93.70;;;;;;5049054;28;19924;-68
2023/10/24 04:48:25;;;;;;;;;;;11.40;93.70;;;;;;5057494;28;19925;-68
2023/10/24 04:50:51;;;;;;;;;;;11.50;93.80;;;;;;5060868;28;19920;-68
2023/10/24 04:53:16;;;;;;;;;;;11.40;93.90;;;;;;5064470;28;20396;-69
2023/10/24 04:55:42;;;;;;;;;;;11.40;94.00;;;;;;5067627;28;20308;-68
2023/10/24 04:58:08;;;;;;;;;;;11.40;94.10;;;;;;5064052;28;19928;-69
2023/10/24 05:00:33;;;;;;;;;;;11.40;94.20;;;;;;5064583;28;19927;-68
2023/10/24 05:02:59;;;;;;;;;;;11.50;94.20;;;;;;5060844;28;19921;-68
2023/10/24 05:05:24;;;;;;;;;;;11.50;94.10;;;;;;5048955;28;19925;-69
2023/10/24 05:07:50;;;;;;;;;;;11.50;94.20;;;;;;5050381;28;19932;-68
2023/10/24 05:10:15;;;;;;;;;;;11.50;94.10;;;;;;5066549;28;20377;-69
2023/10/24 05:12:41;;;;;;;;;;;11.60;94.10;;;;;;5058701;28;19924;-69
2023/10/24 05:15:07;;;;;;;;;;;11.60;94.10;;;;;;5068186;28;20338;-69
2023/10/24 05:17:33;;;;;;;;;;;11.60;94.30;;;;;;5065059;28;19920;-68
2023/10/24 05:20:02;;;;;;;;;;;11.60;94.30;;;;;;5049228;28;19925;-70
2023/10/24 05:22:28;;;;;;;;;;;11.60;94.30;;;;;;5053388;28;19967;-69
2023/10/24 05:24:54;;;;;;;;;;;11.60;94.30;;;;;;5069652;28;20349;-69
2023/10/24 05:27:19;;;;;;;;;;;11.60;94.30;;;;;;5071523;28;19920;-69
2023/10/24 05:29:45;;;;;;;;;;;11.70;94.30;;;;;;5071588;28;19934;-69
2023/10/24 05:32:10;;;;;;;;;;;11.60;94.20;;;;;;5061792;28;20019;-68
2023/10/24 05:34:36;;;;;;;;;;;11.60;94.20;;;;;;5064129;28;19921;-70
2023/10/24 05:37:03;;;;;;;;;;;11.60;94.20;;;;;;5056797;28;20276;-68
2023/10/24 05:39:29;;;;;;;;;;;11.70;94.20;;;;;;4975987;28;19926;-67
2023/10/24 05:41:54;;;;;;;;;;;11.70;94.20;;;;;;4984219;28;19961;-67
2023/10/24 05:44:20;;;;;;;;;;;11.70;94.20;;;;;;4988113;28;19964;-67
2023/10/24 05:46:46;;;;;;;;;;;11.70;94.10;;;;;;5053916;28;19922;-67
2023/10/24 05:49:11;;;;;;;;;;;11.70;94.10;;;;;;4984743;28;19929;-68
2023/10/24 05:51:37;;;;;;;;;;;11.70;94.10;;;;;;4988604;28;19956;-69
2023/10/24 05:54:02;;;;;;;;;;;11.70;94.00;;;;;;5054945;28;19929;-67
2023/10/24 05:56:31;;;;;;;;;;;11.70;94.10;;;;;;4987250;28;20020;-65
2023/10/24 05:58:56;;;;;;;;;;;11.70;94.50;;;;;;4982732;28;20484;-67
2023/10/24 06:01:22;;;;;;;;;;;11.80;94.30;;;;;;4986357;28;20040;-68
2023/10/24 06:03:47;;;;;;;;;;;11.70;94.10;;;;;;4982475;28;19928;-69
2023/10/24 06:06:13;;;;;;;;;;;11.80;94.10;;;;;;4984782;28;20297;-68
2023/10/24 06:08:39;;;;;;;;;;;11.70;94.10;;;;;;4987947;28;19922;-69
2023/10/24 06:11:05;;;;;;;;;;;11.70;94.10;;;;;;4988006;28;20043;-68
2023/10/24 06:13:31;;;;;;;;;;;11.70;94.00;;;;;;4988001;28;20521;-69
2023/10/24 06:16:10;;;;;;;;;;;11.70;94.00;;;;;;4981335;28;19922;-69
2023/10/24 06:18:35;;;;;;;;;;;11.70;94.00;;;;;;4981833;28;19951;-68
2023/10/24 06:21:04;;;;;;;;;;;11.70;94.00;;;;;;4987620;28;19922;-69
2023/10/24 06:23:30;;;;;;;;;;;11.70;94.00;;;;;;5041902;28;19992;-70
2023/10/24 06:25:56;;;;;;;;;;;11.70;94.00;;;;;;5049534;28;19961;-67
2023/10/24 06:28:22;;;;;;;;;;;11.90;95.00;;;;;;4986051;28;20034;-65
2023/10/24 06:30:47;;;;;;;;;;;11.90;94.20;;;;;;4986151;28;20441;-65
2023/10/24 06:33:13;;;;;;;;;;;11.80;94.00;;;;;;4985096;28;20006;-65
2023/10/24 06:35:38;;;;;;;;;;;11.90;94.00;;;;;;4978203;28;20370;-65
2023/10/24 06:38:04;;;;;;;;;;;11.80;93.90;;;;;;4985782;28;20012;-65
2023/10/24 06:40:29;;;;;;;;;;;11.80;93.90;;;;;;4983902;28;19922;-65
2023/10/24 06:42:55;;;;;;;;;;;11.80;93.90;;;;;;4973828;28;19922;-65
2023/10/24 06:45:21;;;;;;;;;;;11.80;93.80;;;;;;4986750;28;20450;-65
2023/10/24 06:47:46;;;;;;;;;;;11.80;93.80;;;;;;4985921;28;20008;-65
2023/10/24 06:50:11;;;;;;;;;;;11.80;93.70;;;;;;4970310;28;20001;-64
2023/10/24 06:52:38;;;;;;;;;;;11.70;93.70;;;;;;4984840;28;19968;-65
2023/10/24 06:55:04;;;;;;;;;;;11.70;93.60;;;;;;4951658;28;19987;-64
2023/10/24 06:57:30;;;;;;;;;;;11.80;93.60;;;;;;5036726;28;20054;-65
2023/10/24 06:59:56;;;;;;;;;;;11.70;93.40;;;;;;4984307;28;19996;-65
2023/10/24 07:02:21;;;;;;;;;;;11.70;93.40;;;;;;5040101;28;19933;-65
2023/10/24 07:04:47;;;;;;;;;;;11.70;93.50;;;;;;4978772;28;20512;-64
2023/10/24 07:07:12;;;;;;;;;;;11.70;93.40;;;;;;5048169;28;20009;-65
2023/10/24 07:09:38;;;;;;;;;;;11.70;93.50;;;;;;5054452;28;19951;-65
2023/10/24 07:12:03;;;;;;;;;;;11.60;93.40;;;;;;4984338;28;19968;-65
2023/10/24 07:14:29;;;;;;;;;;;11.60;93.40;;;;;;4986003;28;19929;-65
2023/10/24 07:16:54;;;;;;;;;;;11.60;93.40;;;;;;4972437;28;19972;-64
2023/10/24 07:19:20;;;;;;;;;;;11.60;93.40;;;;;;4982907;28;19925;-65
2023/10/24 07:21:46;;;;;;;;;;;11.60;93.40;;;;;;5014803;28;19967;-65
2023/10/24 07:24:11;;;;;;;;;;;11.50;93.50;;;;;;4994401;28;19925;-65
2023/10/24 07:26:37;;;;;;;;;;;11.60;93.50;;;;;;4983805;28;20033;-65
2023/10/24 07:29:02;;;;;;;;;;;11.60;93.60;;;;;;5036911;28;19982;-65
2023/10/24 07:31:28;;;;;;;;;;;11.50;93.60;;;;;;4986717;28;20389;-65
2023/10/24 07:33:54;;;;;;;;;;;11.60;93.60;;;;;;4985239;28;19926;-65
2023/10/24 07:36:19;;;;;;;;;;;11.50;93.60;;;;;;4985937;28;19922;-65
2023/10/24 07:38:45;;;;;;;;;;;11.50;93.60;;;;;;4983928;28;19953;-65
2023/10/24 07:41:10;;;;;;;;;;;11.50;93.60;;;;;;5036202;28;20004;-65
2023/10/24 07:43:36;;;;;;;;;;;11.50;93.50;;;;;;5043314;28;19945;-65
2023/10/24 07:46:02;;;;;;;;;;;11.60;93.60;;;;;;5018943;28;19930;-65
2023/10/24 07:48:28;;;;;;;;;;;11.60;93.60;;;;;;4982610;28;19926;-65
2023/10/24 07:50:54;;;;;;;;;;;11.60;93.50;;;;;;4986582;28;20388;-64
2023/10/24 07:53:20;;;;;;;;;;;11.60;93.50;;;;;;4983051;28;19928;-65
2023/10/24 07:55:46;;;;;;;;;;;11.50;93.30;;;;;;4978648;28;19929;-65
2023/10/24 07:58:11;;;;;;;;;;;11.60;93.40;;;;;;5047853;28;19928;-65
2023/10/24 08:00:37;;;;;;;;;;;11.50;93.40;;;;;;5045364;28;20346;-65
2023/10/24 08:03:02;;;;;;;;;;;11.50;93.30;;;;;;4986794;28;19941;-64
2023/10/24 08:05:28;;;;;;;;;;;11.60;93.30;;;;;;4976170;28;20215;-64
2023/10/24 08:07:53;;;;;;;;;;;11.50;93.20;;;;;;5034549;28;19926;-65
2023/10/24 08:10:19;;;;;;;;;;;11.60;93.30;;;;;;4974503;28;20546;-64
2023/10/24 08:12:44;;;;;;;;;;;11.60;93.20;;;;;;4981146;28;19929;-65
2023/10/24 08:15:10;;;;;;;;;;;11.60;93.10;;;;;;4985078;28;19932;-65
2023/10/24 08:17:35;;;;;;;;;;;11.60;93.10;;;;;;5045651;28;19987;-64
2023/10/24 08:20:02;;;;;;;;;;;11.60;93.10;;;;;;5054312;28;19922;-64
2023/10/24 08:22:28;;;;;;;;;;;11.60;93.10;;;;;;4986045;28;19926;-64
2023/10/24 08:24:53;;;;;;;;;;;11.60;93.20;;;;;;4978692;28;20274;-66
2023/10/24 08:27:19;;;;;;;;;;;11.60;93.10;;;;;;4986296;28;19929;-65
2023/10/24 08:29:44;;;;;;;;;;;11.60;93.20;;;;;;5049413;28;19926;-64
2023/10/24 08:32:11;;;;;;;;;;;11.60;93.20;;;;;;4983108;28;19921;-65
2023/10/24 08:34:37;;;;;;;;;;;11.60;93.10;;;;;;4985666;28;19922;-65
2023/10/24 08:37:03;;;;;;;;;;;11.60;93.10;;;;;;4978224;28;20306;-65
2023/10/24 08:39:28;;;;;;;;;;;11.60;93.10;;;;;;4975878;28;19921;-66
2023/10/24 08:41:56;;;;;;;;;;;11.70;93.00;;;;;;4971250;28;19922;-66
2023/10/24 08:44:23;;;;;;;;;;;11.60;93.00;;;;;;4973710;28;19985;-65
2023/10/24 08:46:49;;;;;;;;;;;11.70;93.10;;;;;;5048600;28;20274;-65
2023/10/24 08:49:15;;;;;;;;;;;11.70;93.10;;;;;;4985707;28;19928;-66
2023/10/24 08:51:41;;;;;;;;;;;11.70;93.10;;;;;;4986713;28;19991;-65
2023/10/24 08:54:07;;;;;;;;;;;11.80;93.00;;;;;;4968016;28;20338;-65
2023/10/24 08:56:34;;;;;;;;;;;11.70;92.80;;;;;;5035871;28;20656;-66
2023/10/24 08:59:00;;;;;;;;;;;11.70;92.90;;;;;;4971047;28;19926;-65
2023/10/24 09:01:26;;;;;;;;;;;11.70;92.80;;;;;;4973126;28;19922;-66
2023/10/24 09:03:51;;;;;;;;;;;11.80;92.70;;;;;;5057435;28;19921;-66
2023/10/24 09:06:18;;;;;;;;;;;11.80;92.80;;;;;;4985455;28;19921;-66
2023/10/24 09:08:43;;;;;;;;;;;11.70;92.80;;;;;;4990361;28;19937;-65
2023/10/24 09:11:09;;;;;;;;;;;11.80;92.80;;;;;;4989384;28;19928;-66
2023/10/24 09:13:34;;;;;;;;;;;11.80;92.80;;;;;;4989789;28;20336;-65
2023/10/24 09:16:07;;;;;;;;;;;11.80;92.70;;;;;;4982173;28;20337;-66
2023/10/24 09:18:33;;;;;;;;;;;11.80;92.60;;;;;;4989682;28;20004;-66
2023/10/24 09:20:59;;;;;;;;;;;11.80;92.50;;;;;;4984022;28;19924;-65
2023/10/24 09:23:24;;;;;;;;;;;11.90;92.60;;;;;;4970672;28;20016;-66
2023/10/24 09:25:50;;;;;;;;;;;11.80;92.50;;;;;;4976821;28;20497;-65
2023/10/24 09:28:17;;;;;;;;;;;11.90;92.50;;;;;;4984672;28;19921;-66
2023/10/24 09:30:42;;;;;;;;;;;11.90;92.50;;;;;;4975887;28;19928;-65
2023/10/24 09:33:08;;;;;;;;;;;11.90;92.40;;;;;;4981503;28;20335;-65
2023/10/24 09:35:35;;;;;;;;;;;11.90;92.30;;;;;;5029397;28;19983;-66
2023/10/24 09:38:01;;;;;;;;;;;11.90;92.30;;;;;;5022753;28;19923;-65
2023/10/24 09:40:37;;;;;;;;;;;11.90;92.20;;;;;;4970069;28;19933;-65
2023/10/24 09:43:10;;;;;;;;;;;11.90;92.40;;;;;;4971094;28;19929;-63
2023/10/24 09:45:36;;;;;;;;;;;11.90;92.40;;;;;;4987675;28;19952;-63
2023/10/24 09:48:02;;;;;;;;;;;11.90;92.40;;;;;;4980642;28;19926;-64
2023/10/24 09:50:28;;;;;;;;;;;11.90;92.40;;;;;;4970529;28;19933;-65
2023/10/24 09:52:53;;;;;;;;;;;11.90;92.50;;;;;;4974426;28;19922;-65
2023/10/24 09:55:19;;;;;;;;;;;11.90;92.40;;;;;;4982400;28;19925;-65
2023/10/24 09:57:45;;;;;;;;;;;11.80;92.40;;;;;;4987918;28;19925;-65
2023/10/24 10:00:11;;;;;;;;;;;11.90;92.40;;;;;;4978184;28;20297;-66
2023/10/24 10:02:40;;;;;;;;;;;11.90;92.50;;;;;;4973251;28;19922;-65
2023/10/24 10:05:06;;;;;;;;;;;11.90;92.40;;;;;;4971458;28;19933;-65
2023/10/24 10:07:32;;;;;;;;;;;12.00;92.40;;;;;;5036091;28;19922;-65
2023/10/24 10:09:58;;;;;;;;;;;11.90;92.30;;;;;;4969771;28;19922;-66
2023/10/24 10:12:24;;;;;;;;;;;12.00;92.40;;;;;;5036725;28;19971;-66
2023/10/24 10:14:56;;;;;;;;;;;12.00;92.40;;;;;;5037436;28;20313;-65
2023/10/24 10:17:40;;;;;;;;;;;12.00;92.30;;;;;;4969644;28;20420;-65
2023/10/24 10:20:28;;;;;;;;;;;12.00;92.30;;;;;;4969109;28;19929;-65
2023/10/24 10:23:09;;;;;;;;;;;12.10;92.50;;;;;;4970378;28;19929;-65
2023/10/24 10:25:52;;;;;;;;;;;12.00;92.40;;;;;;4977419;28;19922;-65
2023/10/24 10:28:35;;;;;;;;;;;12.00;92.60;;;;;;5041363;28;20671;-65
2023/10/24 10:31:27;;;;;;;;;;;12.00;92.50;;;;;;4988870;28;20298;-65
2023/10/24 10:33:55;;;;;;;;;;;12.00;92.50;;;;;;5047446;28;20075;-65
2023/10/24 10:36:20;;;;;;;;;;;12.10;92.40;;;;;;4970131;28;20008;-65
2023/10/24 10:38:49;;;;;;;;;;;12.10;92.40;;;;;;4970073;28;20017;-65
2023/10/24 10:41:32;;;;;;;;;;;12.00;92.40;;;;;;4970402;28;19930;-65
2023/10/24 10:43:59;;;;;;;;;;;12.10;92.30;;;;;;4970139;28;19940;-64
2023/10/24 10:46:26;;;;;;;;;;;12.10;92.20;;;;;;4982236;28;19921;-64
2023/10/24 10:48:52;;;;;;;;;;;12.10;92.20;;;;;;4989798;28;20397;-66
2023/10/24 10:51:24;;;;;;;;;;;12.10;92.20;;;;;;4989317;28;19947;-65
2023/10/24 10:54:09;;;;;;;;;;;12.10;92.20;;;;;;4985242;28;19922;-64
2023/10/24 10:56:35;;;;;;;;;;;12.20;92.20;;;;;;4971209;28;20363;-64
2023/10/24 10:59:07;;;;;;;;;;;12.10;92.20;;;;;;4979683;28;19988;-63
2023/10/24 11:01:36;;;;;;;;;;;12.20;92.30;;;;;;4970129;28;19948;-65
2023/10/24 11:04:11;;;;;;;;;;;12.20;92.20;;;;;;4988279;28;19964;-64
2023/10/24 11:07:04;;;;;;;;;;;12.30;92.20;;;;;;4988913;28;20424;-64
2023/10/24 11:09:34;;;;;;;;;;;12.30;92.20;;;;;;4989305;28;20404;-64
2023/10/24 11:12:22;;;;;;;;;;;12.40;92.20;;;;;;4989319;28;19953;-63
2023/10/24 11:15:06;;;;;;;;;;;12.40;92.20;;;;;;4983143;28;19929;-64
2023/10/24 11:17:31;;;;;;;;;;;12.40;92.30;;;;;;4979950;28;19922;-64
2023/10/24 11:20:00;;;;;;;;;;;12.40;92.20;;;;;;4988237;28;19922;-63
2023/10/24 11:22:26;;;;;;;;;;;12.40;92.30;;;;;;4981345;28;19922;-64
2023/10/24 11:24:51;;;;;;;;;;;12.40;92.30;;;;;;4969651;28;20365;-64
2023/10/24 11:27:17;;;;;;;;;;;12.50;92.20;;;;;;4969808;28;20015;-64
2023/10/24 11:29:43;;;;;;;;;;;12.40;92.00;;;;;;4969743;28;20421;-64
2023/10/24 11:32:08;;;;;;;;;;;12.50;92.00;;;;;;4974270;28;19932;-64
2023/10/24 11:34:34;;;;;;;;;;;12.50;92.10;;;;;;4988879;28;20038;-64
2023/10/24 11:36:59;;;;;;;;;;;12.50;92.00;;;;;;4988501;28;19926;-64
2023/10/24 11:39:26;;;;;;;;;;;12.60;92.00;;;;;;4988706;28;19922;-64
2023/10/24 11:41:51;;;;;;;;;;;12.50;91.90;;;;;;4988550;28;19921;-64
2023/10/24 11:44:17;;;;;;;;;;;12.50;91.80;;;;;;4987747;28;19929;-64
2023/10/24 11:46:43;;;;;;;;;;;12.50;91.80;;;;;;4988877;28;19929;-64
2023/10/24 11:49:09;;;;;;;;;;;12.50;91.70;;;;;;4988499;28;20013;-64
2023/10/24 11:51:35;;;;;;;;;;;12.50;91.70;;;;;;4988376;28;19980;-63
2023/10/24 11:54:01;;;;;;;;;;;12.50;91.70;;;;;;5055970;28;19921;-64
2023/10/24 11:56:28;;;;;;;;;;;12.50;91.60;;;;;;5055473;28;19991;-64
2023/10/24 11:58:53;;;;;;;;;;;12.50;91.60;;;;;;5055437;28;19922;-64
2023/10/24 12:01:19;;;;;;;;;;;12.50;91.70;;;;;;4988398;28;19929;-64
2023/10/24 12:03:46;;;;;;;;;;;12.50;91.60;;;;;;4988767;28;19967;-64
2023/10/24 12:06:11;;;;;;;;;;;12.50;91.70;;;;;;4988701;28;19922;-64
2023/10/24 12:08:37;;;;;;;;;;;12.50;91.60;;;;;;4988611;28;19967;-64
2023/10/24 12:11:02;;;;;;;;;;;12.40;91.70;;;;;;4988084;28;19922;-63
2023/10/24 12:13:29;;;;;;;;;;;12.50;91.80;;;;;;4987401;28;20008;-64
2023/10/24 12:15:55;;;;;;;;;;;12.50;91.70;;;;;;4987757;28;19921;-64
2023/10/24 12:18:22;;;;;;;;;;;12.50;91.90;;;;;;4987871;28;19926;-64
2023/10/24 12:20:47;;;;;;;;;;;12.40;91.90;;;;;;4988706;28;20374;-64
2023/10/24 12:23:13;;;;;;;;;;;12.40;91.80;;;;;;5039839;28;19929;-64
2023/10/24 12:25:38;;;;;;;;;;;12.30;91.90;;;;;;4969059;28;19929;-64
2023/10/24 12:28:04;;;;;;;;;;;12.40;92.10;;;;;;4969093;28;20437;-64
2023/10/24 12:30:29;;;;;;;;;;;12.40;92.00;;;;;;4970884;28;19922;-64
2023/10/24 12:32:55;;;;;;;;;;;12.40;92.00;;;;;;4972739;28;19922;-64
2023/10/24 12:35:20;;;;;;;;;;;12.40;92.00;;;;;;4972115;28;20309;-64
2023/10/24 12:37:46;;;;;;;;;;;12.30;92.00;;;;;;4971956;28;20012;-64
2023/10/24 12:40:11;;;;;;;;;;;12.30;92.00;;;;;;4972300;28;19925;-64
2023/10/24 12:42:37;;;;;;;;;;;12.30;91.80;;;;;;4972418;28;19922;-64
2023/10/24 12:45:03;;;;;;;;;;;12.30;91.90;;;;;;5039306;28;19922;-65
2023/10/24 12:47:29;;;;;;;;;;;12.30;92.00;;;;;;4972329;28;19926;-64
2023/10/24 12:49:54;;;;;;;;;;;12.30;91.90;;;;;;4971803;28;19930;-65
2023/10/24 12:52:20;;;;;;;;;;;12.30;92.00;;;;;;4972164;28;19926;-65
2023/10/24 12:54:47;;;;;;;;;;;12.20;92.00;;;;;;4972375;28;19922;-64
2023/10/24 12:57:13;;;;;;;;;;;12.20;92.20;;;;;;4971865;28;19922;-63
2023/10/24 12:59:38;;;;;;;;;;;12.20;92.20;;;;;;4972402;28;19922;-64
2023/10/24 13:02:04;;;;;;;;;;;12.20;92.50;;;;;;4971816;28;19922;-64
2023/10/24 13:04:30;;;;;;;;;;;12.20;92.40;;;;;;4971984;28;20021;-64
2023/10/24 13:06:55;;;;;;;;;;;12.20;92.40;;;;;;4971788;28;20037;-64
2023/10/24 13:09:22;;;;;;;;;;;12.20;92.50;;;;;;4971790;28;19957;-64
2023/10/24 13:11:47;;;;;;;;;;;12.20;92.50;;;;;;4971681;28;19922;-64
2023/10/24 13:14:13;;;;;;;;;;;12.20;92.50;;;;;;4971944;28;19922;-64
2023/10/24 13:16:39;;;;;;;;;;;12.20;92.50;;;;;;4971957;28;20358;-64
2023/10/24 13:19:04;;;;;;;;;;;12.20;92.60;;;;;;4972101;28;20374;-64
2023/10/24 13:21:30;;;;;;;;;;;12.20;92.70;;;;;;4971842;28;20048;-64
2023/10/24 13:23:55;;;;;;;;;;;12.20;92.70;;;;;;4971295;28;19961;-65
2023/10/24 13:26:21;;;;;;;;;;;12.20;92.70;;;;;;4971490;28;19952;-64
2023/10/24 13:28:46;;;;;;;;;;;12.20;92.80;;;;;;4980158;28;19921;-65
2023/10/24 13:31:12;;;;;;;;;;;12.20;92.80;;;;;;4990541;28;19926;-65
2023/10/24 13:33:37;;;;;;;;;;;12.20;92.80;;;;;;4990656;28;19975;-64
2023/10/24 13:36:03;;;;;;;;;;;12.20;92.70;;;;;;4990311;28;19926;-64
2023/10/24 13:38:30;;;;;;;;;;;12.20;92.90;;;;;;4990353;28;20332;-65
2023/10/24 13:40:56;;;;;;;;;;;12.30;92.80;;;;;;4990393;28;19922;-65
2023/10/24 13:43:21;;;;;;;;;;;12.20;92.70;;;;;;4989929;28;19956;-65
2023/10/24 13:45:47;;;;;;;;;;;12.30;92.60;;;;;;4990473;28;20365;-64
2023/10/24 13:48:13;;;;;;;;;;;12.20;92.60;;;;;;4990549;28;19926;-64
2023/10/24 13:50:38;;;;;;;;;;;12.20;92.70;;;;;;4990688;28;20297;-65
2023/10/24 13:53:04;;;;;;;;;;;12.20;92.80;;;;;;4990367;28;19971;-65
2023/10/24 13:55:32;;;;;;;;;;;12.30;92.60;;;;;;4990114;28;20015;-64
2023/10/24 13:57:57;;;;;;;;;;;12.20;92.70;;;;;;4990504;28;19921;-64
2023/10/24 14:00:23;;;;;;;;;;;12.20;92.60;;;;;;4990371;28;19928;-64
2023/10/24 14:02:48;;;;;;;;;;;12.30;92.60;;;;;;4981012;28;20615;-64
2023/10/24 14:05:14;;;;;;;;;;;12.20;92.60;;;;;;4970726;28;19929;-64
2023/10/24 14:07:40;;;;;;;;;;;12.20;92.40;;;;;;4970726;28;19926;-64
2023/10/24 14:10:05;;;;;;;;;;;12.30;92.40;;;;;;4970759;28;19922;-65
2023/10/24 14:12:31;;;;;;;;;;;12.20;92.40;;;;;;4970761;28;20370;-64